Flight Track Log - Related Links

Times and Time Zones

All times are in EDT time to prevent confusion due to time zone crossing. See the UAL139 flight status page for this flight to view local times or setup timezone preferences in your user account.

Time Position Orientation Groundspeed Altitude Reporting Facility
EDT Latitude Longitude Course Direction KTS MPH feet Rate Location/Type
Sat 02:39:16 PM 39.8710 -104.6960 303° West 163 188 5,200  Level FlightAware ADS-B
Sat 02:39:26 PM 39.8809 -104.6960 360° North 195 224 5,100 692 Descending FlightAware ADS-B
Sat 02:39:42 PM 39.8962 -104.6960 360° North 215 247 5,500 1,778 Climbing FlightAware ADS-B
Sat 02:39:53 PM 39.9077 -104.6960 360° North 219 252 5,900 2,400 Climbing FlightAware ADS-B
Sat 02:39:57 PM 39.9117 -104.6950 11° North 221 254 6,100 2,250 Climbing FlightAware ADS-B
Sat 02:40:01 PM 39.9156 -104.6960 349° North 223 257 6,200 1,714 Climbing FlightAware ADS-B
Sat 02:40:04 PM 39.9189 -104.6960 360° North 226 260 6,300 1,000 Climbing FlightAware ADS-B
Sat 02:40:07 PM 39.9223 -104.6970 347° North 229 264 6,300 857 Level FlightAware ADS-B
Sat 02:40:11 PM 39.9265 -104.6980 350° North 233 268 6,400 947 Climbing FlightAware ADS-B
Sat 02:40:26 PM 39.9431 -104.7030 347° North 249 287 6,600 960 Climbing FlightAware ADS-B
Sat 02:40:36 PM 39.9544 -104.7060 348° North 259 298 6,800 1,154 Climbing FlightAware ADS-B
Sat 02:40:52 PM 39.9736 -104.7120 347° North 276 318 7,100 1,548 Climbing FlightAware ADS-B
Sat 02:41:07 PM 39.9929 -104.7170 349° North 283 326 7,600 2,200 Climbing FlightAware ADS-B
Sat 02:41:22 PM 40.0118 -104.7220 349° North 288 331 8,200 2,400 Climbing FlightAware ADS-B
Sat 02:41:37 PM 40.0317 -104.7280 347° North 292 336 8,800 2,455 Climbing FlightAware ADS-B
Sat 02:41:44 PM 40.0415 -104.7310 347° North 293 337 9,100 2,100 Climbing FlightAware ADS-B
Sat 02:41:57 PM 40.0580 -104.7370 344° North 296 341 9,500 1,636 Climbing FlightAware ADS-B
Sat 02:42:28 PM 40.0992 -104.7560 341° North 321 369 10,300 1,258 Climbing FlightAware ADS-B
Sat 02:42:59 PM 40.1450 -104.7780 340° North 353 406 10,800 1,475 Climbing FlightAware ADS-B
Sat 02:43:29 PM 40.1929 -104.8000 341° North 367 422 11,800 2,100 Climbing FlightAware ADS-B
Sat 02:43:59 PM 40.2418 -104.8230 340° North 375 432 12,900 2,031 Climbing FlightAware ADS-B
Sat 02:44:34 PM 40.2989 -104.8500 340° North 381 438 14,000 1,818 Climbing FlightAware ADS-B
Sat 02:45:05 PM 40.3522 -104.8740 341° North 401 461 14,900 1,869 Climbing FlightAware ADS-B
Sat 02:45:35 PM 40.4062 -104.9000 340° North 412 474 15,900 2,000 Climbing FlightAware ADS-B
Sat 02:46:05 PM 40.4610 -104.9250 341° North 418 481 16,900 2,066 Climbing FlightAware ADS-B
Sat 02:46:36 PM 40.5174 -104.9520 340° North 422 486 18,000 2,066 Climbing FlightAware ADS-B
Sat 02:47:06 PM 40.5732 -104.9780 341° North 426 490 19,000 2,156 Climbing FlightAware ADS-B
Sat 02:47:40 PM 40.6362 -105.0070 341° North 424 488 20,300 2,137 Climbing FlightAware ADS-B
Sat 02:48:19 PM 40.7080 -105.0410 340° North 427 491 21,600 1,862 Climbing FlightAware ADS-B
Sat 02:48:38 PM 40.7442 -105.0600 338° Northwest 426 490 22,100 1,688 Climbing FlightAware ADS-B
Sat 02:48:51 PM 40.7662 -105.0750 333° Northwest 428 493 22,500 1,846 Climbing FlightAware ADS-B
Sat 02:49:04 PM 40.7871 -105.0940 325° Northwest 425 489 22,900 1,256 Climbing FlightAware ADS-B
Sat 02:49:34 PM 40.8329 -105.1450 320° Northwest 434 499 23,400 1,029 Climbing FlightAware ADS-B
Sat 02:50:14 PM 40.8950 -105.2150 320° Northwest 448 516 24,100 1,217 Climbing FlightAware ADS-B
Sat 02:50:43 PM 40.9420 -105.2660 321° Northwest 446 513 24,800 1,391 Climbing FlightAware ADS-B
Sat 02:51:23 PM 41.0070 -105.3370 321° Northwest 460 529 25,700 1,308 Climbing FlightAware ADS-B
Sat 02:52:01 PM 41.0680 -105.4040 320° Northwest 466 536 26,500 1,125 Climbing FlightAware ADS-B
Sat 02:52:43 PM 41.1390 -105.4830 320° Northwest 474 545 27,200 1,054 Climbing FlightAware ADS-B
Sat 02:53:15 PM 41.1930 -105.5430 320° Northwest 482 555 27,800 1,182 Climbing FlightAware ADS-B
Sat 02:53:49 PM 41.2490 -105.6060 320° Northwest 485 558 28,500 1,083 Climbing FlightAware ADS-B
Sat 02:54:27 PM 41.3160 -105.6810 320° Northwest 491 565 29,100 1,114 Climbing FlightAware ADS-B
Sat 02:54:59 PM 41.3710 -105.7420 320° Northwest 493 567 29,800 1,612 Climbing FlightAware ADS-B
Sat 02:55:34 PM 41.4330 -105.8120 320° Northwest 486 559 30,900 1,667 Climbing FlightAware ADS-B
Sat 02:56:11 PM 41.4970 -105.8840 320° Northwest 483 556 31,800 1,268 Climbing FlightAware ADS-B
Sat 02:56:45 PM 41.5560 -105.9500 320° Northwest 487 560 32,400 1,200 Climbing FlightAware ADS-B
Sat 02:57:21 PM 41.6180 -106.0200 320° Northwest 484 557 33,200 1,333 Climbing FlightAware ADS-B
Sat 02:57:57 PM 41.6790 -106.0900 319° Northwest 483 556 34,000 1,135 Climbing FlightAware ADS-B
Sat 02:58:35 PM 41.7430 -106.1620 320° Northwest 484 557 34,600 769 Climbing FlightAware ADS-B
Sat 02:59:15 PM 41.8110 -106.2400 319° Northwest 488 562 35,000 404 Climbing FlightAware ADS-B
Sat 03:00:04 PM 41.8880 -106.3290 319° Northwest 491 565 35,200 145 Climbing FlightAware ADS-B
Sat 03:00:38 PM 41.9370 -106.3870 319° Northwest 491 565 35,200  Level FlightAware ADS-B
Sat 03:01:14 PM 41.9900 -106.4480 319° Northwest 491 565 35,200  Level FlightAware ADS-B
Sat 03:01:50 PM 42.0420 -106.5100 318° Northwest 491 565 35,200  Level FlightAware ADS-B
Sat 03:02:26 PM 42.0950 -106.5710 320° Northwest 491 565 35,200  Level FlightAware ADS-B
Sat 03:03:02 PM 42.1470 -106.6330 319° Northwest 491 565 35,200  Level FlightAware ADS-B
Sat 03:03:38 PM 42.2000 -106.6940 320° Northwest 491 565 35,200  Level FlightAware ADS-B
Sat 03:04:14 PM 42.2520 -106.7560 319° Northwest 491 565 35,200  Level FlightAware ADS-B
Sat 03:04:51 PM 42.3060 -106.8190 319° Northwest 491 565 35,200  Level FlightAware ADS-B
Sat 03:05:27 PM 42.3580 -106.8810 319° Northwest 491 565 35,200  Level FlightAware ADS-B
Sat 03:06:03 PM 42.4110 -106.9420 320° Northwest 491 565 35,200  Level FlightAware ADS-B
Sat 03:06:39 PM 42.4630 -107.0040 319° Northwest 491 565 35,200  Level FlightAware ADS-B
Sat 03:07:15 PM 42.5160 -107.0660 319° Northwest 491 565 35,200  Level FlightAware ADS-B
Sat 03:07:51 PM 42.5680 -107.1280 319° Northwest 491 565 35,200  Level FlightAware ADS-B
Sat 03:08:27 PM 42.6210 -107.1900 319° Northwest 491 565 35,200  Level FlightAware ADS-B
Sat 03:09:03 PM 42.6730 -107.2520 319° Northwest 491 565 35,200 2,507 Level FlightAware ADS-B
Sat 03:09:34 PM 42.8839 -107.4947 319° Northwest 500 575 38,000 1,806 Climbing Denver Center
Sat 03:10:36 PM 42.9831 -107.6139 319° Northwest 499 574 38,000  Level Denver Center
Sat 03:11:38 PM 43.1003 -107.7550 319° Northwest 501 577 38,000  Level Denver Center
Sat 03:12:52 PM 43.2164 -107.8975 318° Northwest 501 577 38,000  Level Salt Lake Center
Sat 03:13:53 PM 43.3328 -108.0394 318° Northwest 502 578 38,000  Level Salt Lake Center
Sat 03:14:55 PM 43.4325 -108.1614 318° Northwest 502 578 38,000  Level Salt Lake Center
Sat 03:15:57 PM 43.5494 -108.3056 318° Northwest 504 580 38,000  Level Salt Lake Center
Sat 03:16:58 PM 43.6483 -108.4267 318° Northwest 499 574 38,000  Level Salt Lake Center
Sat 03:18:00 PM 43.7458 -108.5492 318° Northwest 497 572 38,000  Level Salt Lake Center
Sat 03:19:02 PM 43.8533 -108.6828 318° Northwest 498 573 38,000  Level Salt Lake Center
Sat 03:20:03 PM 43.9672 -108.8253 318° Northwest 493 567 38,000  Level Salt Lake Center
Sat 03:21:05 PM 44.0658 -108.9497 318° Northwest 498 573 38,000  Level Salt Lake Center
Sat 03:22:07 PM 44.1803 -109.0956 318° Northwest 500 575 38,000  Level Salt Lake Center
Sat 03:23:09 PM 44.2794 -109.2200 318° Northwest 501 577 38,000  Level Salt Lake Center
Sat 03:24:10 PM 44.3939 -109.3689 317° Northwest 504 580 38,000  Level Salt Lake Center
Sat 03:25:12 PM 44.4931 -109.4944 318° Northwest 503 579 38,000  Level Salt Lake Center
Sat 03:26:14 PM 44.5919 -109.6233 317° Northwest 507 583 38,000  Level Salt Lake Center
Sat 03:27:16 PM 44.7056 -109.7725 317° Northwest 505 581 38,000  Level Salt Lake Center
Sat 03:28:18 PM 44.8031 -109.8992 317° Northwest 503 579 38,000  Level Salt Lake Center
Sat 03:29:19 PM 44.9153 -110.0475 317° Northwest 496 571 38,000  Level Salt Lake Center
Sat 03:30:21 PM 45.0119 -110.1742 317° Northwest 496 571 38,000  Level Salt Lake Center
Sat 03:31:23 PM 45.1244 -110.3242 317° Northwest 498 573 38,000  Level Salt Lake Center
Sat 03:32:25 PM 45.2206 -110.4519 317° Northwest 497 572 38,000  Level Salt Lake Center
Sat 03:33:27 PM 45.3342 -110.6042 317° Northwest 500 575 38,000  Level Salt Lake Center
Sat 03:34:29 PM 45.4322 -110.7378 316° Northwest 506 582 38,000  Level Salt Lake Center
Sat 03:35:31 PM 45.5458 -110.8914 317° Northwest 506 582 38,000  Level Salt Lake Center
Sat 03:36:32 PM 45.6428 -111.0233 316° Northwest 506 582 38,000  Level Salt Lake Center
Sat 03:37:34 PM 45.7561 -111.1786 316° Northwest 506 582 38,000  Level Salt Lake Center
Sat 03:38:36 PM 45.8539 -111.3133 316° Northwest 508 585 38,000  Level Salt Lake Center
Sat 03:39:38 PM 45.9500 -111.4464 316° Northwest 505 581 38,000  Level Salt Lake Center
Sat 03:40:40 PM 46.0611 -111.6011 316° Northwest 502 578 38,000  Level Salt Lake Center
Sat 03:41:42 PM 46.1567 -111.7336 316° Northwest 500 575 38,000  Level Salt Lake Center
Sat 03:42:44 PM 46.2678 -111.8922 315° West 500 575 38,000  Level Salt Lake Center
Sat 03:43:45 PM 46.3628 -112.0283 315° West 502 578 38,000  Level Salt Lake Center
Sat 03:44:47 PM 46.4631 -112.1689 316° Northwest 501 577 38,000  Level Salt Lake Center
Sat 03:45:49 PM 46.5636 -112.3144 315° West 508 585 38,000  Level Salt Lake Center
Sat 03:46:51 PM 46.6633 -112.4586 315° West 506 582 38,000  Level Salt Lake Center
Sat 03:47:53 PM 46.7828 -112.6306 315° West 504 580 38,000  Level Salt Lake Center
Sat 03:48:55 PM 46.8831 -112.7778 315° West 509 586 38,000  Level Salt Lake Center
Sat 03:49:56 PM 46.9822 -112.9222 315° West 505 581 38,000 -49 Level Salt Lake Center
Sat 03:50:58 PM 47.0886 -113.0800 315° West 500 575 37,900 -48 Descending Salt Lake Center
Sat 03:52:00 PM 47.1875 -113.2250 315° West 502 578 37,900 48 Level Salt Lake Center
Sat 03:53:02 PM 47.2844 -113.3706 315° West 500 575 38,000  Climbing Salt Lake Center
Sat 03:54:03 PM 47.3817 -113.5169 314° West 500 575 37,900  Descending Salt Lake Center
Sat 03:55:05 PM 47.4778 -113.6622 314° West 496 571 38,000  Climbing Salt Lake Center
Sat 03:56:07 PM 47.5742 -113.8081 314° West 495 570 37,900  Descending Salt Lake Center
Sat 04:02:12 PM 48.1670 -114.7270 314° West 489 563 38,000 15 Climbing FlightAware ADS-B
Sat 04:02:57 PM 48.2350 -114.8330 314° West 491 565 38,000  Level FlightAware ADS-B
Sat 04:03:28 PM 48.2770 -114.9010 313° West 493 567 38,000  Level FlightAware ADS-B
Sat 04:04:24 PM 48.3600 -115.0330 313° West 493 567 38,000  Level FlightAware ADS-B
Sat 04:04:54 PM 48.4190 -115.1270 313° West 493 567 38,000  Level FlightAware ADS-B
Sat 04:05:29 PM 48.4730 -115.2130 313° West 494 568 38,000  Level FlightAware ADS-B
Sat 04:06:04 PM 48.5290 -115.3030 313° West 492 566 38,000  Level FlightAware ADS-B
Sat 04:06:34 PM 48.5720 -115.3740 312° West 492 566 38,000  Level FlightAware ADS-B
Sat 04:07:14 PM 48.6370 -115.4780 313° West 492 566 38,000  Level FlightAware ADS-B
Sat 04:07:59 PM 48.7080 -115.5930 313° West 486 559 38,000  Level FlightAware ADS-B
Sat 04:08:29 PM 48.7530 -115.6670 313° West 485 558 38,000  Level FlightAware ADS-B
Sat 04:09:09 PM 48.8150 -115.7690 313° West 485 558 38,000  Level FlightAware ADS-B
Sat 04:09:45 PM 48.8700 -115.8590 313° West 485 558 38,000  Level FlightAware ADS-B
Sat 04:10:21 PM 48.9240 -115.9480 313° West 483 556 38,000  Level FlightAware ADS-B
Sat 04:11:00 PM 48.9790 -116.0390 313° West 485 558 38,000  Level FlightAware ADS-B
Sat 04:11:25 PM 49.0230 -116.1120 313° West 485 558 38,000  Level FlightAware ADS-B
Sat 04:12:00 PM 49.0760 -116.2000 313° West 486 559 38,000  Level FlightAware ADS-B
Sat 04:12:35 PM 49.1300 -116.2910 312° West 488 562 38,000  Level FlightAware ADS-B
Sat 04:13:11 PM 49.1830 -116.3800 312° West 485 558 38,000  Level FlightAware ADS-B
Sat 04:13:46 PM 49.2380 -116.4730 312° West 486 559 38,000  Level FlightAware ADS-B
Sat 04:14:22 PM 49.2920 -116.5630 313° West 485 558 38,000  Level FlightAware ADS-B
Sat 04:14:56 PM 49.3390 -116.6440 312° West 485 558 38,000  Level FlightAware ADS-B
Sat 04:15:31 PM 49.3980 -116.7440 312° West 484 557 38,000  Level FlightAware ADS-B
Sat 04:16:06 PM 49.4510 -116.8340 312° West 484 557 38,000  Level FlightAware ADS-B
Sat 04:16:41 PM 49.5040 -116.9250 312° West 485 558 38,000  Level FlightAware ADS-B
Sat 04:17:16 PM 49.5560 -117.0150 312° West 484 557 38,000  Level FlightAware ADS-B
Sat 04:17:51 PM 49.6090 -117.1070 312° West 486 559 38,000  Level FlightAware ADS-B
Sat 04:18:26 PM 49.6610 -117.1970 312° West 490 564 38,000  Level FlightAware ADS-B
Sat 04:19:11 PM 49.7220 -117.3040 311° West 491 565 38,000  Level FlightAware ADS-B
Sat 04:19:46 PM 49.7790 -117.4020 312° West 491 565 38,000  Level FlightAware ADS-B
Sat 04:20:24 PM 49.8280 -117.4890 311° West 492 566 38,000  Level FlightAware ADS-B
Sat 04:21:01 PM 49.8950 -117.6060 312° West 490 564 38,000  Level FlightAware ADS-B
Sat 04:21:38 PM 49.9440 -117.6930 311° West 489 563 38,000  Level FlightAware ADS-B
Sat 04:22:06 PM 49.9920 -117.7770 312° West 488 562 38,000  Level FlightAware ADS-B
Sat 04:22:46 PM 50.0490 -117.8770 312° West 489 563 38,000  Level FlightAware ADS-B
Sat 04:23:18 PM 50.1000 -117.9700 311° West 490 564 38,000  Level FlightAware ADS-B
Sat 04:23:58 PM 50.1600 -118.0760 311° West 489 563 38,000  Level FlightAware ADS-B
Sat 04:24:30 PM 50.2070 -118.1600 311° West 489 563 38,000  Level FlightAware ADS-B
Sat 04:25:06 PM 50.2600 -118.2570 311° West 492 566 38,000  Level FlightAware ADS-B
Sat 04:25:40 PM 50.3090 -118.3450 311° West 492 566 38,000  Level FlightAware ADS-B
Sat 04:26:14 PM 50.3600 -118.4380 311° West 493 567 38,000  Level FlightAware ADS-B
Sat 04:26:50 PM 50.4150 -118.5370 311° West 492 566 38,000  Level FlightAware ADS-B
Sat 04:27:28 PM 50.4690 -118.6380 310° West 490 564 38,000  Level FlightAware ADS-B
Sat 04:28:08 PM 50.5270 -118.7430 311° West 490 564 38,000  Level FlightAware ADS-B
Sat 04:28:44 PM 50.5820 -118.8450 310° West 496 571 38,000  Level FlightAware ADS-B
Sat 04:29:16 PM 50.6290 -118.9330 310° West 495 570 38,000  Level FlightAware ADS-B
Sat 04:29:50 PM 50.6800 -119.0270 311° West 493 567 38,000  Level FlightAware ADS-B
Sat 04:30:28 PM 50.7350 -119.1310 310° West 493 567 38,000  Level FlightAware ADS-B
Sat 04:31:04 PM 50.7880 -119.2290 311° West 491 565 38,000  Level FlightAware ADS-B
Sat 04:31:40 PM 50.8390 -119.3250 310° West 491 565 38,000  Level FlightAware ADS-B
Sat 04:32:12 PM 50.8880 -119.4170 310° West 490 564 38,000  Level FlightAware ADS-B
Sat 04:32:48 PM 50.9390 -119.5150 310° West 489 563 38,000  Level FlightAware ADS-B
Sat 04:33:24 PM 50.9920 -119.6150 310° West 493 567 38,000  Level FlightAware ADS-B
Sat 04:33:57 PM 51.0390 -119.7050 310° West 494 568 38,000  Level FlightAware ADS-B
Sat 04:34:32 PM 51.0910 -119.8040 310° West 493 567 38,000  Level FlightAware ADS-B
Sat 04:35:09 PM 51.1430 -119.9050 309° West 492 566 38,000  Level FlightAware ADS-B
Sat 04:35:44 PM 51.1950 -120.0040 310° West 493 567 38,000  Level FlightAware ADS-B
Sat 04:36:20 PM 51.2480 -120.1070 309° West 495 570 38,000  Level FlightAware ADS-B
Sat 04:36:52 PM 51.2930 -120.1960 309° West 495 570 38,000  Level FlightAware ADS-B
Sat 04:37:30 PM 51.3490 -120.3040 310° West 496 571 38,000  Level FlightAware ADS-B
Sat 04:38:02 PM 51.3940 -120.3930 309° West 494 568 38,000  Level FlightAware ADS-B
Sat 04:38:38 PM 51.4470 -120.4960 310° West 491 565 38,000  Level FlightAware ADS-B
Sat 04:39:02 PM 51.4810 -120.5630 309° West 490 564 38,000  Level FlightAware ADS-B
Sat 04:39:36 PM 51.5270 -120.6560 309° West 489 563 38,000  Level FlightAware ADS-B
Sat 04:40:19 PM 51.5890 -120.7790 309° West 492 566 38,000  Level FlightAware ADS-B
Sat 04:40:49 PM 51.6240 -120.8500 308° West 492 566 38,000  Level FlightAware ADS-B
Sat 04:41:25 PM 51.6670 -120.9390 308° West 492 566 38,000  Level FlightAware ADS-B
Sat 04:42:01 PM 51.7100 -121.0270 308° West 492 566 38,000  Level FlightAware ADS-B
Sat 04:42:37 PM 51.7530 -121.1160 308° West 492 566 38,000  Level FlightAware ADS-B
Sat 04:43:11 PM 51.8340 -121.2720 310° West 495 570 38,000  Level FlightAware ADS-B
Sat 04:43:45 PM 51.8820 -121.3690 309° West 495 570 38,000  Level FlightAware ADS-B
Sat 04:44:21 PM 51.9340 -121.4750 309° West 494 568 38,000  Level FlightAware ADS-B
Sat 04:44:59 PM 51.9870 -121.5850 308° West 493 567 38,000  Level FlightAware ADS-B
Sat 04:45:31 PM 52.0320 -121.6780 308° West 492 566 38,000  Level FlightAware ADS-B
Sat 04:46:07 PM 52.0830 -121.7830 308° West 495 570 38,000  Level FlightAware ADS-B
Sat 04:46:43 PM 52.1340 -121.8880 308° West 498 573 38,000  Level FlightAware ADS-B
Sat 04:47:15 PM 52.1790 -121.9840 307° West 498 573 38,000  Level FlightAware ADS-B
Sat 04:47:52 PM 52.2310 -122.0920 308° West 496 571 38,000  Level FlightAware ADS-B
Sat 04:48:23 PM 52.2760 -122.1860 308° West 498 573 38,000  Level FlightAware ADS-B
Sat 04:48:57 PM 52.3230 -122.2850 308° West 499 574 38,000  Level FlightAware ADS-B
Sat 04:49:37 PM 52.3790 -122.4050 307° West 499 574 38,000  Level FlightAware ADS-B
Sat 04:50:11 PM 52.4280 -122.5080 308° West 502 578 38,000  Level FlightAware ADS-B
Sat 04:50:47 PM 52.4770 -122.6140 307° West 502 578 38,000  Level FlightAware ADS-B
Sat 04:51:23 PM 52.5290 -122.7250 308° West 505 581 38,000  Level FlightAware ADS-B
Sat 04:51:55 PM 52.5730 -122.8200 307° West 503 579 38,000  Level FlightAware ADS-B
Sat 04:52:31 PM 52.6250 -122.9320 307° West 503 579 38,000  Level FlightAware ADS-B
Sat 04:53:07 PM 52.6760 -123.0430 307° West 505 581 38,000  Level FlightAware ADS-B
Sat 04:53:39 PM 52.7190 -123.1380 307° West 503 579 38,000  Level FlightAware ADS-B
Sat 04:54:16 PM 52.7710 -123.2510 307° West 504 580 38,000  Level FlightAware ADS-B
Sat 04:54:47 PM 52.8140 -123.3470 307° West 503 579 38,000  Level FlightAware ADS-B
Sat 04:55:28 PM 52.8700 -123.4700 307° West 503 579 38,000  Level FlightAware ADS-B
Sat 04:56:03 PM 52.9210 -123.5830 307° West 505 581 38,000  Level FlightAware ADS-B
Sat 04:56:35 PM 52.9640 -123.6800 306° West 504 580 38,000  Level FlightAware ADS-B
Sat 04:57:11 PM 53.0150 -123.7920 307° West 504 580 38,000  Level FlightAware ADS-B
Sat 04:57:47 PM 53.0640 -123.9040 306° West 505 581 38,000  Level FlightAware ADS-B
Sat 04:58:13 PM 53.1010 -123.9870 307° West 506 582 38,000  Level FlightAware ADS-B
Sat 04:58:49 PM 53.1500 -124.0990 306° West 507 583 38,000  Level FlightAware ADS-B
Sat 04:59:25 PM 53.1990 -124.2110 306° West 507 583 38,000  Level FlightAware ADS-B
Sat 04:59:59 PM 53.2470 -124.3200 306° West 507 583 38,000  Level FlightAware ADS-B
Sat 05:00:37 PM 53.2990 -124.4400 306° West 507 583 38,000  Level FlightAware ADS-B
Sat 05:01:09 PM 53.3430 -124.5410 306° West 508 585 38,000  Level FlightAware ADS-B
Sat 05:01:45 PM 53.3920 -124.6550 306° West 507 583 38,000  Level FlightAware ADS-B
Sat 05:02:21 PM 53.4420 -124.7700 306° West 508 585 38,000  Level FlightAware ADS-B
Sat 05:02:53 PM 53.4850 -124.8700 306° West 507 583 38,000  Level FlightAware ADS-B
Sat 05:03:29 PM 53.5350 -124.9890 305° West 509 586 38,000  Level FlightAware ADS-B
Sat 05:04:07 PM 53.5850 -125.1060 306° West 508 585 38,000  Level FlightAware ADS-B
Sat 05:04:39 PM 53.6290 -125.2100 306° West 505 581 38,000  Level FlightAware ADS-B
Sat 05:05:15 PM 53.6790 -125.3290 305° West 505 581 38,000  Level FlightAware ADS-B
Sat 05:05:47 PM 53.7210 -125.4300 305° West 506 582 38,000  Level FlightAware ADS-B
Sat 05:06:22 PM 53.7650 -125.5360 305° West 511 588 38,000  Level FlightAware ADS-B
Sat 05:06:57 PM 53.8150 -125.6570 305° West 511 588 38,000  Level FlightAware ADS-B
Sat 05:07:32 PM 53.8620 -125.7710 305° West 512 589 38,000  Level FlightAware ADS-B
Sat 05:08:08 PM 53.9110 -125.8890 305° West 511 588 38,000  Level FlightAware ADS-B
Sat 05:08:43 PM 53.9570 -126.0030 304° West 511 588 38,000  Level FlightAware ADS-B
Sat 05:09:19 PM 54.0060 -126.1230 305° West 509 586 38,000  Level FlightAware ADS-B
Sat 05:09:57 PM 54.0570 -126.2480 305° West 507 583 38,000  Level FlightAware ADS-B
Sat 05:10:27 PM 54.0980 -126.3490 305° West 508 585 38,000  Level FlightAware ADS-B
Sat 05:11:05 PM 54.1480 -126.4730 305° West 505 581 38,000  Level FlightAware ADS-B
Sat 05:11:41 PM 54.1950 -126.5920 304° West 504 580 38,000  Level FlightAware ADS-B
Sat 05:12:17 PM 54.2410 -126.7090 304° West 503 579 38,000  Level FlightAware ADS-B
Sat 05:12:49 PM 54.2830 -126.8140 304° West 504 580 38,000  Level FlightAware ADS-B
Sat 05:13:33 PM 54.3400 -126.9580 304° West 504 580 38,000  Level FlightAware ADS-B
Sat 05:14:05 PM 54.3810 -127.0620 304° West 505 581 38,000  Level FlightAware ADS-B
Sat 05:14:35 PM 54.4200 -127.1640 303° West 504 580 38,000  Level FlightAware ADS-B
Sat 05:15:15 PM 54.4650 -127.2820 303° West 503 579 38,000  Level FlightAware ADS-B
Sat 05:15:49 PM 54.5150 -127.4080 304° West 501 577 38,000  Level FlightAware ADS-B
Sat 05:16:25 PM 54.5620 -127.5290 304° West 500 575 38,000  Level FlightAware ADS-B
Sat 05:17:01 PM 54.6020 -127.6350 303° West 500 575 38,000  Level FlightAware ADS-B
Sat 05:17:29 PM 54.6410 -127.7370 303° West 497 572 38,000  Level FlightAware ADS-B
Sat 05:18:17 PM 54.6970 -127.8840 303° West 497 572 38,000  Level FlightAware ADS-B
Sat 05:18:53 PM 54.7350 -127.9860 303° West 497 572 38,000  Level FlightAware ADS-B
Sat 05:19:29 PM 54.7730 -128.0890 303° West 497 572 38,000  Level FlightAware ADS-B
Sat 05:20:05 PM 54.8110 -128.1910 303° West 497 572 38,000  Level FlightAware ADS-B
Sat 05:20:41 PM 54.8500 -128.2940 303° West 497 572 38,000  Level FlightAware ADS-B
Sat 05:21:18 PM 54.8890 -128.3990 303° West 497 572 38,000  Level FlightAware ADS-B
Sat 05:21:54 PM 54.9270 -128.5020 303° West 497 572 38,000  Level FlightAware ADS-B
Sat 05:22:32 PM 54.9680 -128.6100 304° West 497 572 38,000  Level FlightAware ADS-B
Sat 05:23:08 PM 55.0060 -128.7130 303° West 497 572 38,000  Level FlightAware ADS-B
Sat 05:23:44 PM 55.0440 -128.8160 303° West 497 572 38,000  Level FlightAware ADS-B
Sat 05:24:20 PM 55.0830 -128.9190 304° West 497 572 38,000  Level FlightAware ADS-B
Sat 05:24:56 PM 55.1210 -129.0220 303° West 497 572 38,000  Level FlightAware ADS-B
Sat 05:25:32 PM 55.1590 -129.1250 303° West 497 572 38,000  Level FlightAware ADS-B
Sat 05:26:08 PM 55.1980 -129.2290 303° West 497 572 38,000  Level FlightAware ADS-B
Sat 05:26:44 PM 55.2360 -129.3320 303° West 497 572 38,000  Level FlightAware ADS-B
Sat 05:27:20 PM 55.2740 -129.4360 303° West 497 572 38,000  Level FlightAware ADS-B
Sat 05:27:59 PM 55.4000 -129.8333 303° West 490 564 38,000  Level Anchorage Center
Sat 05:28:33 PM 55.4500 -130.0000 298° West 490 564 38,000  Level Vancouver Center
Sat 05:29:33 PM 55.5167 -130.2000 301° West 490 564 38,000  Level Vancouver Center
Sat 05:30:33 PM 55.5833 -130.4167 299° West 490 564 38,000  Level Vancouver Center
Sat 05:31:33 PM 55.6667 -130.6333 304° West 490 564 38,000  Level Vancouver Center
Sat 05:32:33 PM 55.7333 -130.8167 303° West 480 552 38,000  Level Vancouver Center
Sat 05:33:33 PM 55.7833 -131.0333 292° West 470 541 38,000  Level Vancouver Center
Sat 05:34:33 PM 55.8667 -131.2333 307° West 480 552 38,000  Level Vancouver Center
Sat 05:35:33 PM 55.9333 -131.4500 299° West 480 552 38,000  Level Vancouver Center
Sat 05:36:33 PM 55.9833 -131.6500 294° West 490 564 38,000  Level Vancouver Center
Sat 05:37:33 PM 56.0667 -131.8667 305° West 480 552 38,000  Level Vancouver Center
Sat 05:38:33 PM 56.1333 -132.0667 301° West 480 552 38,000  Level Vancouver Center
Sat 05:39:33 PM 56.1833 -132.2833 293° West 470 541 38,000  Level Vancouver Center
Sat 05:40:33 PM 56.2500 -132.4833 301° West 480 552 38,000  Level Vancouver Center
Sat 05:41:33 PM 56.3167 -132.6833 301° West 480 552 38,000  Level Vancouver Center
Sat 05:42:33 PM 56.3667 -132.9000 293° West 480 552 38,000  Level Vancouver Center
Sat 05:43:33 PM 56.4500 -133.1000 307° West 480 552 38,000  Level Vancouver Center
Sat 05:44:33 PM 56.5000 -133.2667 299° West 470 541 38,000  Level Vancouver Center
Sat 05:45:33 PM 56.5500 -133.4833 293° West 460 529 38,000  Level Vancouver Center
Sat 05:46:33 PM 56.6167 -133.7167 298° West 470 541 38,000  Level Vancouver Center
Sat 05:47:33 PM 56.6667 -133.9500 291° West 470 541 38,000  Level Vancouver Center
Sat 05:48:33 PM 56.7167 -134.1333 296° West 470 541 38,000  Level Vancouver Center
Sat 05:49:33 PM 56.7667 -134.3667 291° West 470 541 38,000  Level Vancouver Center
Sat 05:50:33 PM 56.8333 -134.6000 298° West 470 541 38,000  Level Vancouver Center
Sat 05:51:33 PM 56.8833 -134.8000 295° West 470 541 38,000  Level Vancouver Center
Sat 05:52:33 PM 56.9333 -135.0333 292° West 470 541 38,000  Level Vancouver Center
Sat 05:53:33 PM 56.9833 -135.2667 292° West 480 552 38,000  Level Vancouver Center
Sat 05:54:33 PM 57.0333 -135.4667 295° West 480 552 38,000  Level Vancouver Center
Sat 05:55:33 PM 57.0833 -135.7000 292° West 480 552 38,000  Level Vancouver Center
Sat 05:56:33 PM 57.1333 -135.9333 292° West 480 552 38,000  Level Vancouver Center
Sat 05:57:33 PM 57.2000 -136.1333 302° West 480 552 38,000  Level Vancouver Center
Sat 05:58:33 PM 57.2333 -136.3667 285° West 480 552 38,000  Level Vancouver Center
Sat 05:59:33 PM 57.2833 -136.6000 292° West 480 552 38,000  Level Vancouver Center
Sat 06:00:33 PM 57.3333 -136.8333 292° West 480 552 38,000  Level Vancouver Center
Sat 06:01:33 PM 57.4000 -137.0500 300° West 480 552 38,000  Level Vancouver Center
Sat 06:02:33 PM 57.4333 -137.2833 285° West 480 552 38,000  Level Vancouver Center
Sat 06:03:03 PM 57.4667 -137.3500 313° West 480 552 38,000  Level Anchorage Center
Sat 06:03:33 PM 57.4833 -137.5167 281° West 480 552 38,000  Level Vancouver Center
Sat 06:04:33 PM 57.5333 -137.7500 292° West 480 552 38,000  Level Vancouver Center
Sat 06:05:03 PM 57.5667 -137.8000 321° Northwest 470 541 38,000  Level Anchorage Center
Sat 06:06:03 PM 57.6000 -138.0333 285° West 470 541 38,000  Level Anchorage Center
Sat 06:07:03 PM 57.6500 -138.2667 292° West 480 552 38,000  Level Anchorage Center
Sat 06:08:03 PM 57.7000 -138.5000 292° West 480 552 38,000  Level Anchorage Center
Sat 06:09:03 PM 57.7333 -138.7000 287° West 480 552 38,000  Level Anchorage Center
Sat 06:10:03 PM 57.7833 -138.9333 292° West 480 552 38,000  Level Anchorage Center
Sat 06:11:03 PM 57.8333 -139.1667 292° West 480 552 38,000  Level Anchorage Center
Sat 06:12:03 PM 57.8833 -139.4167 291° West 490 564 38,000  Level Anchorage Center
Sat 06:13:03 PM 57.9333 -139.6500 292° West 480 552 38,000  Level Anchorage Center
Sat 06:14:03 PM 57.9667 -139.8833 285° West 470 541 38,000  Level Anchorage Center
Sat 06:15:04 PM 58.0167 -140.1333 291° West 480 552 38,000  Level Anchorage Center
Sat 06:16:04 PM 58.0500 -140.3667 285° West 480 552 38,000  Level Anchorage Center
Sat 06:17:04 PM 58.0833 -140.6167 284° West 480 552 38,000  Level Anchorage Center
Sat 06:18:04 PM 58.1167 -140.8667 284° West 480 552 38,000  Level Anchorage Center
Sat 06:19:04 PM 58.1500 -141.1167 284° West 490 564 38,000  Level Anchorage Center
Sat 06:20:04 PM 58.1833 -141.3667 284° West 490 564 38,000  Level Anchorage Center
Sat 06:21:04 PM 58.2167 -141.6167 284° West 480 552 38,000  Level Anchorage Center
Sat 06:22:04 PM 58.2500 -141.8667 284° West 490 564 38,000  Level Anchorage Center
Sat 06:23:04 PM 58.2667 -142.1167 277° West 480 552 38,000  Level Anchorage Center
Sat 06:24:04 PM 58.3000 -142.3667 284° West 490 564 38,000  Level Anchorage Center
Sat 06:25:04 PM 58.3333 -142.6167 284° West 480 552 38,000  Level Anchorage Center
Sat 06:26:04 PM 58.3667 -142.8667 284° West 480 552 38,000  Level Anchorage Center
Sat 06:27:04 PM 58.4000 -143.1500 283° West 480 552 38,000  Level Anchorage Center
Sat 06:28:04 PM 58.4333 -143.4000 284° West 480 552 38,000  Level Anchorage Center
Sat 06:29:04 PM 58.4500 -143.6000 279° West 480 552 38,000  Level Anchorage Center
Sat 06:30:04 PM 58.4833 -143.8500 284° West 480 552 38,000  Level Anchorage Center
Sat 06:31:04 PM 58.5000 -144.1000 277° West 480 552 38,000  Level Anchorage Center
Sat 06:32:05 PM 58.5333 -144.3667 284° West 480 552 38,000  Level Anchorage Center
Sat 06:33:05 PM 58.5667 -144.6167 284° West 480 552 38,000  Level Anchorage Center
Sat 06:34:05 PM 58.5833 -144.8667 277° West 490 564 38,000  Level Anchorage Center
Sat 06:35:05 PM 58.6167 -145.1333 284° West 480 552 38,000  Level Anchorage Center
Sat 06:36:05 PM 58.6333 -145.3833 277° West 480 552 38,000  Level Anchorage Center
Sat 06:37:05 PM 58.6500 -145.6333 277° West 480 552 38,000  Level Anchorage Center
Sat 06:38:05 PM 58.6833 -145.9000 284° West 480 552 38,000  Level Anchorage Center
Sat 06:39:05 PM 58.7000 -146.1500 277° West 480 552 38,000  Level Anchorage Center
Sat 06:40:06 PM 58.7333 -146.4000 285° West 470 541 38,000  Level Anchorage Center
Sat 06:41:05 PM 58.7500 -146.6667 277° West 470 541 38,000  Level Anchorage Center
Sat 06:42:05 PM 58.7667 -146.9167 277° West 480 552 38,000  Level Anchorage Center
Sat 06:43:06 PM 58.8000 -147.1667 285° West 470 541 38,000  Level Anchorage Center
Sat 06:49:20 PM 58.9230 -148.7980 285° West 474 545 38,000  Level FlightAware ADS-B
Sat 06:49:58 PM 58.9320 -148.9380 277° West 475 547 38,000  Level FlightAware ADS-B
Sat 06:50:46 PM 58.9430 -149.1100 277° West 475 547 38,000 720 Level FlightAware ADS-B
Sat 06:51:38 PM 58.9600 -149.3500 278° West 469 540 39,200 818 Climbing FlightAware ADS-B
Sat 06:52:14 PM 58.9680 -149.4780 277° West 469 540 39,200 649 Level FlightAware ADS-B
Sat 06:52:52 PM 58.9810 -149.6840 277° West 468 539 40,000 667 Climbing FlightAware ADS-B
Sat 06:53:26 PM 58.9890 -149.8180 277° West 466 536 40,000  Level FlightAware ADS-B
Sat 06:54:06 PM 58.9970 -149.9600 276° West 466 536 40,000  Level FlightAware ADS-B
Sat 06:54:42 PM 59.0040 -150.0870 276° West 466 536 40,000  Level FlightAware ADS-B
Sat 06:55:18 PM 59.0110 -150.2150 276° West 466 536 40,000  Level FlightAware ADS-B
Sat 06:55:54 PM 59.0170 -150.3420 275° West 466 536 40,000  Level FlightAware ADS-B
Sat 06:56:30 PM 59.0240 -150.4700 276° West 466 536 40,000  Level FlightAware ADS-B
Sat 06:57:06 PM 59.0310 -150.5970 276° West 466 536 40,000  Level FlightAware ADS-B
Sat 06:57:42 PM 59.0380 -150.7250 276° West 466 536 40,000  Level FlightAware ADS-B
Sat 06:58:18 PM 59.0450 -150.8520 276° West 466 536 40,000  Level FlightAware ADS-B
Sat 06:58:53 PM 59.0410 -151.1950 269° West 467 537 40,000  Level FlightAware ADS-B
Sat 06:59:48 PM 59.0460 -151.4020 273° West 464 534 40,000  Level FlightAware ADS-B
Sat 07:00:21 PM 59.0510 -151.5600 274° West 460 529 40,000  Level FlightAware ADS-B
Sat 07:00:59 PM 59.0550 -151.7170 273° West 460 529 40,000  Level FlightAware ADS-B
Sat 07:01:35 PM 59.0590 -151.8620 273° West 462 532 40,000  Level FlightAware ADS-B
Sat 07:02:17 PM 59.0610 -152.0100 272° West 462 532 40,000  Level FlightAware ADS-B
Sat 07:02:54 PM 59.0640 -152.1400 273° West 462 532 40,000  Level FlightAware ADS-B
Sat 07:03:30 PM 59.0660 -152.2670 272° West 462 532 40,000  Level FlightAware ADS-B
Sat 07:04:06 PM 59.0680 -152.3950 272° West 462 532 40,000  Level FlightAware ADS-B
Sat 07:04:42 PM 59.0700 -152.5220 272° West 462 532 40,000  Level FlightAware ADS-B
Sat 07:05:18 PM 59.0730 -152.6490 273° West 462 532 40,000  Level FlightAware ADS-B
Sat 07:05:54 PM 59.0750 -152.7760 272° West 462 532 40,000  Level FlightAware ADS-B
Sat 07:06:33 PM 59.0820 -153.0830 273° West 460 529 40,000  Level FlightAware ADS-B
Sat 07:07:13 PM 59.0850 -153.2570 272° West 463 533 40,000  Level FlightAware ADS-B
Sat 07:07:49 PM 59.0870 -153.3980 272° West 460 529 40,000  Level FlightAware ADS-B
Sat 07:08:39 PM 59.0890 -153.5870 271° West 459 528 40,000  Level FlightAware ADS-B
Sat 07:09:16 PM 59.0900 -153.7170 271° West 459 528 40,000  Level FlightAware ADS-B
Sat 07:09:52 PM 59.0910 -153.8430 271° West 459 528 40,000  Level FlightAware ADS-B
Sat 07:10:28 PM 59.0920 -153.9700 271° West 459 528 40,000  Level FlightAware ADS-B
Sat 07:11:04 PM 59.0930 -154.0960 271° West 459 528 40,000  Level FlightAware ADS-B
Sat 07:11:40 PM 59.0940 -154.2230 271° West 459 528 40,000  Level FlightAware ADS-B
Sat 07:12:16 PM 59.0950 -154.3490 271° West 459 528 40,000  Level FlightAware ADS-B
Sat 07:12:53 PM 59.0960 -154.4790 271° West 459 528 40,000  Level FlightAware ADS-B
Sat 07:13:29 PM 59.0970 -154.6060 271° West 459 528 40,000  Level FlightAware ADS-B
Sat 07:14:05 PM 59.0990 -154.7320 272° West 459 528 40,000  Level FlightAware ADS-B
Sat 07:14:41 PM 59.1000 -154.8590 271° West 459 528 40,000  Level FlightAware ADS-B
Sat 07:15:18 PM 59.1010 -154.9890 271° West 459 528 40,000  Level FlightAware ADS-B
Sat 07:15:54 PM 59.1020 -155.1150 271° West 459 528 40,000  Level FlightAware ADS-B
Sat 07:16:30 PM 59.1030 -155.2420 271° West 459 528 40,000  Level FlightAware ADS-B
Sat 07:17:06 PM 59.1040 -155.3680 271° West 459 528 40,000  Level FlightAware ADS-B
Sat 07:17:42 PM 59.1050 -155.4950 271° West 459 528 40,000  Level FlightAware ADS-B
Sat 07:19:09 PM 59.0833 -156.1167 271° West 430 495 40,000  Level Anchorage Center
Sat 07:20:09 PM 59.0833 -156.3667 270° West 440 506 40,000  Level Anchorage Center
Sat 07:21:09 PM 59.0833 -156.6000 270° West 440 506 40,000  Level Anchorage Center
Sat 07:22:09 PM 59.0833 -156.8333 270° West 430 495 40,000  Level Anchorage Center
Sat 07:23:09 PM 59.0667 -157.0667 262° West 430 495 40,000  Level Anchorage Center
Sat 07:24:09 PM 59.0667 -157.3000 270° West 440 506 40,000  Level Anchorage Center
Sat 07:25:09 PM 59.0667 -157.5500 270° West 440 506 40,000  Level Anchorage Center
Sat 07:26:09 PM 59.0667 -157.7833 270° West 430 495 40,000  Level Anchorage Center
Sat 07:27:09 PM 59.0500 -158.0167 262° West 440 506 40,000  Level Anchorage Center
Sat 07:28:09 PM 59.0500 -158.2500 270° West 440 506 40,000  Level Anchorage Center
Sat 07:29:09 PM 59.0333 -158.5000 263° West 430 495 40,000  Level Anchorage Center
Sat 07:30:10 PM 59.0333 -158.7333 270° West 440 506 40,000  Level Anchorage Center
Sat 07:31:10 PM 59.0333 -158.9667 270° West 430 495 40,000  Level Anchorage Center
Sat 07:32:10 PM 59.0167 -159.2000 262° West 430 495 40,000  Level Anchorage Center
Sat 07:33:10 PM 59.0167 -159.4333 270° West 430 495 40,000  Level Anchorage Center
Sat 07:34:10 PM 59.0000 -159.7000 263° West 430 495 40,000  Level Anchorage Center
Sat 07:35:10 PM 59.0000 -159.9333 270° West 420 483 40,000  Level Anchorage Center
Sat 07:36:10 PM 58.9833 -160.1500 262° West 420 483 40,000  Level Anchorage Center
Sat 07:37:10 PM 58.9833 -160.3833 270° West 410 472 40,000  Level Anchorage Center
Sat 07:38:10 PM 58.9833 -160.6000 270° West 420 483 40,000  Level Anchorage Center
Sat 07:39:11 PM 58.9833 -160.8333 270° West 410 472 40,000  Level Anchorage Center
Sat 07:40:11 PM 58.9667 -161.0500 262° West 420 483 40,000  Level Anchorage Center
Sat 07:41:11 PM 58.9667 -161.2833 270° West 410 472 40,000  Level Anchorage Center
Sat 07:42:11 PM 58.9667 -161.5000 270° West 410 472 40,000  Level Anchorage Center
Sat 07:43:11 PM 58.9500 -161.7167 262° West 410 472 40,000  Level Anchorage Center
Sat 07:44:11 PM 58.9500 -161.9000 270° West 410 472 40,000  Level Anchorage Center
Sat 07:45:11 PM 58.9500 -162.1667 270° West 410 472 40,000  Level Anchorage Center
Sat 07:46:11 PM 58.9333 -162.3833 262° West 400 460 40,000  Level Anchorage Center
Sat 07:47:11 PM 58.9333 -162.6000 270° West 410 472 40,000  Level Anchorage Center
Sat 07:48:11 PM 58.9167 -162.8167 262° West 410 472 40,000  Level Anchorage Center
Sat 07:49:11 PM 58.9167 -163.0333 270° West 400 460 40,000  Level Anchorage Center
Sat 07:50:12 PM 58.9000 -163.2500 262° West 400 460 40,000  Level Anchorage Center
Sat 07:51:12 PM 58.9000 -163.4667 270° West 400 460 40,000  Level Anchorage Center
Sat 07:52:12 PM 58.8833 -163.6833 262° West 410 472 40,000  Level Anchorage Center
Sat 07:53:12 PM 58.8833 -163.9000 270° West 400 460 40,000  Level Anchorage Center
Sat 07:54:12 PM 58.8667 -164.1167 262° West 400 460 40,000  Level Anchorage Center
Sat 07:55:12 PM 58.8500 -164.3333 262° West 400 460 40,000  Level Anchorage Center
Sat 07:56:12 PM 58.8500 -164.5500 270° West 400 460 40,000  Level Anchorage Center
Sat 07:57:12 PM 58.8333 -164.7667 262° West 400 460 40,000  Level Anchorage Center
Sat 07:58:13 PM 58.8333 -164.9833 270° West 400 460 40,000  Level Anchorage Center
Sat 07:59:13 PM 58.8167 -165.2167 262° West 410 472 40,000  Level Anchorage Center
Sat 08:00:12 PM 58.8000 -165.4333 262° West 410 472 40,000  Level Anchorage Center
Sat 08:01:13 PM 58.7833 -165.6500 262° West 410 472 40,000  Level Anchorage Center
Sat 08:02:13 PM 58.7833 -165.8667 270° West 410 472 40,000  Level Anchorage Center
Sat 08:03:31 PM 58.7500 -166.1833 259° West 410 472 40,000  Level Anchorage Center
Sat 08:04:30 PM 58.7500 -166.4000 270° West 410 472 40,000  Level Anchorage Center
Sat 08:05:31 PM 58.7333 -166.6333 262° West 420 483 40,000  Level Anchorage Center
Sat 08:06:31 PM 58.7167 -166.8333 261° West 410 472 40,000  Level Anchorage Center
Sat 08:07:31 PM 58.7000 -167.0500 262° West 400 460 40,000  Level Anchorage Center
Sat 08:08:31 PM 58.6833 -167.2833 262° West 410 472 40,000  Level Anchorage Center
Sat 08:09:31 PM 58.6667 -167.5000 262° West 410 472 40,000  Level Anchorage Center
Sat 08:10:31 PM 58.6500 -167.7167 262° West 410 472 40,000  Level Anchorage Center
Sat 08:11:32 PM 58.6167 -167.9500 255° West 420 483 40,000  Level Anchorage Center
Sat 08:12:31 PM 58.6000 -168.1667 262° West 420 483 40,000  Level Anchorage Center
Sat 08:13:31 PM 58.5833 -168.3833 262° West 430 495 40,000  Level Anchorage Center
Sat 08:14:32 PM 58.5667 -168.6167 262° West 420 483 40,000  Level Anchorage Center
Sat 08:15:32 PM 58.5500 -168.8333 262° West 430 495 40,000  Level Anchorage Center
Sat 08:16:32 PM 58.5167 -169.0667 255° West 430 495 40,000  Level Anchorage Center
Sat 08:17:32 PM 58.5000 -169.2833 262° West 420 483 40,000  Level Anchorage Center
Sat 08:18:32 PM 58.4833 -169.5167 262° West 430 495 40,000  Level Anchorage Center
Sat 08:19:32 PM 58.4500 -169.7500 255° West 430 495 40,000  Level Anchorage Center
Sat 08:20:32 PM 58.4333 -169.9833 262° West 430 495 40,000  Level Anchorage Center
Sat 08:21:32 PM 58.4000 -170.2000 254° West 430 495 40,000  Level Anchorage Center
Sat 08:22:33 PM 58.3833 -170.4333 262° West 430 495 40,000  Level Anchorage Center
Sat 08:23:33 PM 58.3500 -170.6500 254° West 440 506 40,000  Level Anchorage Center
Sat 08:24:33 PM 58.3333 -170.8833 262° West 440 506 40,000  Level Anchorage Center
Sat 08:25:33 PM 58.3000 -171.1000 254° West 420 483 40,000  Level Anchorage Center
Sat 08:26:33 PM 58.2833 -171.3333 262° West 430 495 40,000  Level Anchorage Center
Sat 08:27:33 PM 58.2500 -171.5500 254° West 430 495 40,000  Level Anchorage Center
Sat 08:28:33 PM 58.2333 -171.7833 262° West 430 495 40,000  Level Anchorage Center
Sat 08:29:33 PM 58.2000 -172.0000 254° West 430 495 40,000  Level Anchorage Center
Sat 08:30:33 PM 58.1833 -172.2167 262° West 430 495 40,000  Level Anchorage Center
Sat 08:31:33 PM 58.1500 -172.4500 255° West 430 495 40,000  Level Anchorage Center
Sat 08:32:33 PM 58.1167 -172.6667 254° West 430 495 40,000  Level Anchorage Center
Sat 08:33:34 PM 58.1000 -172.9000 262° West 440 506 40,000  Level Anchorage Center
Sat 08:34:34 PM 58.0667 -173.1167 254° West 440 506 40,000  Level Anchorage Center
Sat 08:35:34 PM 58.0333 -173.3500 255° West 440 506 40,000  Level Anchorage Center
Sat 08:36:34 PM 58.0000 -173.5833 255° West 450 518 40,000  Level Anchorage Center
Sat 08:37:34 PM 57.9667 -173.8000 254° West 450 518 40,000  Level Anchorage Center
Sat 08:38:34 PM 57.9500 -174.0333 262° West 440 506 40,000  Level Anchorage Center
Sat 08:39:34 PM 57.9167 -174.2500 254° West 440 506 40,000  Level Anchorage Center
Sat 08:40:34 PM 57.8833 -174.4833 255° West 440 506 40,000  Level Anchorage Center
Sat 08:41:34 PM 57.8500 -174.7000 254° West 440 506 40,000  Level Anchorage Center
Sat 08:42:34 PM 57.8167 -174.9333 255° West 450 518 40,000  Level Anchorage Center
Sat 08:43:35 PM 57.7833 -175.1667 255° West 450 518 40,000  Level Anchorage Center
Sat 08:44:35 PM 57.7500 -175.3833 254° West 450 518 40,000  Level Anchorage Center
Sat 08:45:34 PM 57.7167 -175.5667 251° West 460 529 40,000  Level Anchorage Center
Sat 08:46:35 PM 57.6833 -175.8000 255° West 460 529 40,000  Level Anchorage Center
Sat 08:47:35 PM 57.6500 -176.0333 255° West 460 529 40,000  Level Anchorage Center
Sat 08:48:36 PM 57.6167 -176.2667 255° West 460 529 40,000  Level Anchorage Center
Sat 08:50:46 PM 57.5333 -176.8000 252° West 453 521 40,000  Level Anchorage Center
Sat 08:57:00 PM 57.2914 -178.1447 251° West 453 521 40,000  Level FlightAware Transoceanic
Sat 08:58:00 PM 57.2497 -178.3670 251° West 453 521 40,000  Level FlightAware Transoceanic
Sat 08:58:40 PM 57.2167 -178.5667 251° West 448 516 40,000  Level Anchorage Center
Sat 08:59:00 PM 57.2076 -178.5889 251° West 453 521 40,000  Level FlightAware Transoceanic
Sat 09:00:00 PM 57.1651 -178.8103 250° West 453 521 40,000  Level FlightAware Transoceanic
Sat 09:01:00 PM 57.1223 -179.0311 250° West 453 521 40,000  Level FlightAware Transoceanic
Sat 09:02:00 PM 57.0790 -179.2514 250° West 453 521 40,000  Level FlightAware Transoceanic
Sat 09:03:00 PM 57.0354 -179.4713 250° West 453 521 40,000  Level FlightAware Transoceanic
Sat 09:04:00 PM 56.9913 -179.6906 250° West 453 521 40,000  Level FlightAware Transoceanic
Sat 09:05:00 PM 56.9608 -179.8619 249° West 448 516 40,000  Level FlightAware Transoceanic
Sat 09:06:00 PM 56.9169 179.9240 249° West 448 516 40,000  Level FlightAware Transoceanic
Sat 09:07:00 PM 56.8725 179.7103 249° West 448 516 40,000  Level FlightAware Transoceanic
Sat 09:08:00 PM 56.8279 179.4972 249° West 448 516 40,000  Level FlightAware Transoceanic
Sat 09:08:18 PM 56.8000 179.3500 249° West 455 524 40,000  Level Anchorage Center
Sat 09:09:00 PM 56.7828 179.2846 249° West 448 516 40,000  Level FlightAware Transoceanic
Sat 09:10:00 PM 56.7375 179.0725 249° West 448 516 40,000  Level FlightAware Transoceanic
Sat 09:11:00 PM 56.6917 178.8610 248° West 448 516 40,000  Level FlightAware Transoceanic
Sat 09:12:00 PM 56.6456 178.6499 248° West 448 516 40,000  Level FlightAware Transoceanic
Sat 09:13:00 PM 56.5991 178.4394 248° West 448 516 40,000  Level FlightAware Transoceanic
Sat 09:14:00 PM 56.5200 178.0734 248° West 455 524 40,000  Level FlightAware Transoceanic
Sat 09:15:00 PM 56.4721 177.8625 248° West 455 524 40,000  Level FlightAware Transoceanic
Sat 09:16:00 PM 56.4238 177.6521 247° West 455 524 40,000  Level FlightAware Transoceanic
Sat 09:17:00 PM 56.3751 177.4423 247° West 455 524 40,000  Level FlightAware Transoceanic
Sat 09:17:50 PM 56.3333 177.2833 247° West 459 528 40,000  Level Anchorage Center
Sat 09:18:00 PM 56.3261 177.2330 247° West 455 524 40,000  Level FlightAware Transoceanic
Sat 09:19:00 PM 56.2768 177.0242 247° West 455 524 40,000  Level FlightAware Transoceanic
Sat 09:19:53 PM 56.2167 176.8500 246° West 470 541 40,000  Level Anchorage Center
Sat 09:20:00 PM 56.2271 176.8160 247° West 455 524 40,000  Level FlightAware Transoceanic
Sat 09:21:00 PM 56.1771 176.6083 246° West 455 524 40,000  Level FlightAware Transoceanic
Sat 09:21:00 PM 56.1588 176.6202 246° West  Level Estimated
Sat 09:22:00 PM 56.1267 176.4012 246° West 455 524 40,000  Level FlightAware Transoceanic
Sat 09:22:03 PM 56.1000 176.3833 246° West 450 518 40,000  Level Anchorage Center
Sat 09:23:00 PM 56.0759 176.1945 246° West 455 524 40,000  Level FlightAware Transoceanic
Sat 09:23:03 PM 56.0667 176.2000 252° West 460 529 40,000  Level Anchorage Center
Sat 09:24:00 PM 56.0308 176.0267 246° West 459 528 40,000  Level FlightAware Transoceanic
Sat 09:24:04 PM 56.0000 175.9667 243° Southwest 460 529 40,000  Level Anchorage Center
Sat 09:25:00 PM 55.9791 175.8192 246° West 459 528 40,000  Level FlightAware Transoceanic
Sat 09:25:03 PM 55.9667 175.7833 252° West 460 529 40,000  Level Anchorage Center
Sat 09:26:04 PM 55.9000 175.5667 241° Southwest 450 518 40,000  Level Anchorage Center
Sat 09:27:03 PM 55.8667 175.3833 252° West 450 518 40,000  Level Anchorage Center
Sat 09:28:04 PM 55.8000 175.1667 241° Southwest 460 529 40,000  Level Anchorage Center
Sat 09:29:03 PM 55.7500 174.9333 249° West 460 529 40,000  Level Anchorage Center
Sat 09:30:04 PM 55.7000 174.7500 244° Southwest 460 529 40,000  Level Anchorage Center
Sat 09:31:04 PM 55.6333 174.5333 241° Southwest 460 529 40,000  Level Anchorage Center
Sat 09:32:04 PM 55.5833 174.3500 244° Southwest 460 529 40,000  Level Anchorage Center
Sat 09:33:04 PM 55.5333 174.1333 248° West 460 529 40,000  Level Anchorage Center
Sat 09:34:04 PM 55.4833 173.9500 244° Southwest 460 529 40,000  Level Anchorage Center
Sat 09:35:04 PM 55.4167 173.7333 242° Southwest 450 518 40,000  Level Anchorage Center
Sat 09:36:04 PM 55.3667 173.5167 248° West 450 518 40,000  Level Anchorage Center
Sat 09:37:04 PM 55.3167 173.3500 242° Southwest 450 518 40,000  Level Anchorage Center
Sat 09:38:05 PM 55.2500 173.1333 242° Southwest 460 529 40,000  Level Anchorage Center
Sat 09:39:04 PM 55.2000 172.9500 245° Southwest 450 518 40,000  Level Anchorage Center
Sat 09:40:05 PM 55.1500 172.7333 248° West 460 529 40,000  Level Anchorage Center
Sat 09:41:05 PM 55.1000 172.5667 242° Southwest 450 518 40,000  Level Anchorage Center
Sat 09:42:05 PM 55.0333 172.3500 242° Southwest 460 529 40,000  Level Anchorage Center
Sat 09:43:05 PM 54.9667 172.1500 240° Southwest 450 518 40,000  Level Anchorage Center
Sat 09:44:05 PM 54.9167 171.9833 242° Southwest 450 518 40,000  Level Anchorage Center
Sat 09:45:05 PM 54.8500 171.7833 240° Southwest 450 518 40,000  Level Anchorage Center
Sat 09:46:05 PM 54.7833 171.6333 232° Southwest 450 518 40,000  Level Anchorage Center
Sat 09:47:05 PM 54.7000 171.4333 234° Southwest 460 529 40,000  Level Anchorage Center
Sat 09:48:06 PM 54.6333 171.2833 233° Southwest 460 529 40,000  Level Anchorage Center
Sat 09:49:06 PM 54.5500 171.0833 234° Southwest 480 552 40,000  Level Anchorage Center
Sat 09:50:05 PM 54.4833 170.9333 233° Southwest 430 495 40,000  Level Anchorage Center
Sat 09:51:06 PM 54.4167 170.7500 238° Southwest 450 518 40,000  Level Anchorage Center
Sat 09:52:06 PM 54.3333 170.5667 232° Southwest 450 518 40,000  Level Anchorage Center
Sat 09:53:06 PM 54.2500 170.4000 229° Southwest 480 552 40,000  Level Anchorage Center
Sat 09:54:06 PM 54.1833 170.2167 238° Southwest 440 506 40,000  Level Anchorage Center
Sat 09:55:06 PM 54.1167 170.0667 233° Southwest 450 518 40,000  Level Anchorage Center
Sat 09:56:06 PM 54.0333 169.8833 232° Southwest 450 518 40,000  Level Anchorage Center
Sat 09:57:06 PM 53.9667 169.7500 230° Southwest 440 506 40,000  Level Anchorage Center
Sat 09:58:06 PM 53.9000 169.5667 238° Southwest 430 495 40,000  Level Anchorage Center
Sat 09:59:07 PM 53.8167 169.3833 232° Southwest 440 506 40,000  Level Anchorage Center
Sat 10:00:06 PM 53.7500 169.2500 230° Southwest 440 506 40,000  Level Anchorage Center
Sat 10:01:07 PM 53.6667 169.0500 235° Southwest 470 541 40,000  Level Anchorage Center
Sat 10:03:07 PM 53.5667 168.7000 244° Southwest 450 518 40,000  Level Anchorage Center
Sat 10:04:07 PM 53.5000 168.5333 236° Southwest 440 506 40,000  Level Anchorage Center
Sat 10:05:07 PM 53.4500 168.3833 241° Southwest 460 529 40,000  Level Anchorage Center
Sat 10:06:07 PM 53.3833 168.1833 241° Southwest 420 483 40,000  Level Anchorage Center
Sat 10:07:07 PM 53.3167 168.0000 239° Southwest 460 529 40,000  Level Anchorage Center
Sat 10:08:07 PM 53.2500 167.8000 241° Southwest 450 518 40,000  Level Anchorage Center
Sat 10:10:00 PM 53.1281 167.4571 239° Southwest  Level FlightAware Approximate
Sat 10:15:25 PM 52.8167 166.5667 238° Southwest 432 497 40,000  Level Anchorage Center
Sat 10:17:00 PM 52.6664 166.1997 239° Southwest  Level FlightAware Approximate
Sat 10:18:00 PM 52.5993 166.0222 238° Southwest  Level FlightAware Approximate
Sat 10:19:00 PM 52.5321 165.8453 238° Southwest  Level FlightAware Approximate
Sat 10:20:00 PM 52.4645 165.6689 238° Southwest  Level FlightAware Approximate
Sat 10:21:00 PM 52.4382 165.5694 238° Southwest 432 497 40,000  Level FlightAware Transoceanic
Sat 10:22:00 PM 52.3744 165.4049 237° Southwest 432 497 40,000  Level FlightAware Transoceanic
Sat 10:23:00 PM 52.3102 165.2408 237° Southwest 432 497 40,000  Level FlightAware Transoceanic
Sat 10:24:00 PM 52.2459 165.0772 237° Southwest 432 497 40,000  Level FlightAware Transoceanic
Sat 10:25:00 PM 52.1814 164.9141 237° Southwest 432 497 40,000  Level FlightAware Transoceanic
Sat 10:25:06 PM 52.2000 164.9833 237° Southwest 431 496 40,000  Level Anchorage Center
Sat 10:26:00 PM 52.1166 164.7515 237° Southwest 432 497 40,000  Level FlightAware Transoceanic
Sat 10:27:00 PM 52.0516 164.5893 237° Southwest 432 497 40,000  Level FlightAware Transoceanic
Sat 10:28:00 PM 51.9863 164.4276 237° Southwest 432 497 40,000  Level FlightAware Transoceanic
Sat 10:29:00 PM 51.9209 164.2664 237° Southwest 432 497 40,000  Level FlightAware Transoceanic
Sat 10:30:00 PM 51.8552 164.1056 236° Southwest 432 497 40,000  Level FlightAware Transoceanic
Sat 10:31:00 PM 51.8161 164.0285 236° Southwest 431 496 40,000  Level FlightAware Transoceanic
Sat 10:32:00 PM 51.7514 163.8709 236° Southwest 431 496 40,000  Level FlightAware Transoceanic
Sat 10:33:00 PM 51.6864 163.7138 236° Southwest 431 496 40,000  Level FlightAware Transoceanic
Sat 10:33:28 PM 51.6500 163.6500 236° Southwest 431 496 40,000  Level Anchorage Center
Sat 10:34:00 PM 51.6213 163.5572 236° Southwest 431 496 40,000  Level FlightAware Transoceanic
Sat 10:34:41 PM 51.5667 163.4500 236° Southwest 429 494 40,000  Level Anchorage Center
Sat 10:35:00 PM 51.5559 163.4010 236° Southwest 431 496 40,000  Level FlightAware Transoceanic
Sat 10:36:00 PM 51.4904 163.2452 236° Southwest 431 496 40,000  Level FlightAware Transoceanic
Sat 10:37:00 PM 51.4246 163.0899 236° Southwest 431 496 40,000  Level FlightAware Transoceanic
Sat 10:38:00 PM 51.3586 162.9351 236° Southwest 431 496 40,000  Level FlightAware Transoceanic
Sat 10:39:00 PM 51.2492 162.6985 236° Southwest 431 496 40,000  Level FlightAware Transoceanic
Sat 10:40:00 PM 51.2222 162.6363 236° Southwest 429 494 40,000  Level FlightAware Transoceanic
Sat 10:41:00 PM 51.1527 162.4750 235° Southwest 429 494 40,000  Level FlightAware Transoceanic
Sat 10:42:00 PM 51.0829 162.3142 235° Southwest 429 494 40,000  Level FlightAware Transoceanic
Sat 10:43:00 PM 51.0129 162.1539 235° Southwest 429 494 40,000  Level FlightAware Transoceanic
Sat 10:44:00 PM 50.9427 161.9941 235° Southwest 429 494 40,000  Level FlightAware Transoceanic
Sat 10:44:17 PM 50.9333 161.9500 235° Southwest 430 495 40,000  Level Anchorage Center
Sat 10:45:00 PM 50.8722 161.8348 235° Southwest 429 494 40,000  Level FlightAware Transoceanic
Sat 10:46:00 PM 50.8016 161.6759 235° Southwest 429 494 40,000  Level FlightAware Transoceanic
Sat 10:47:00 PM 50.7307 161.5175 235° Southwest 429 494 40,000  Level FlightAware Transoceanic
Sat 10:48:00 PM 50.6596 161.3596 235° Southwest 429 494 40,000  Level FlightAware Transoceanic
Sat 10:49:00 PM 50.5883 161.2022 234° Southwest 429 494 40,000  Level FlightAware Transoceanic
Sat 10:50:00 PM 50.5106 161.0171 234° Southwest 430 495 40,000  Level FlightAware Transoceanic
Sat 10:51:00 PM 50.4394 160.8633 234° Southwest 430 495 40,000  Level FlightAware Transoceanic
Sat 10:52:00 PM 50.3680 160.7099 234° Southwest 430 495 40,000  Level FlightAware Transoceanic
Sat 10:53:00 PM 50.2964 160.5569 234° Southwest 430 495 40,000  Level FlightAware Transoceanic
Sat 10:53:53 PM 50.2500 160.4833 234° Southwest 434 499 40,000  Level Anchorage Center
Sat 10:54:00 PM 50.2247 160.4045 234° Southwest 430 495 40,000  Level FlightAware Transoceanic
Sat 10:54:34 PM 50.2000 160.3833 234° Southwest 439 505 40,000  Level Anchorage Center
Sat 10:55:00 PM 50.1527 160.2525 233° Southwest 430 495 40,000  Level FlightAware Transoceanic
Sat 10:56:00 PM 50.0805 160.1009 233° Southwest 430 495 40,000  Level FlightAware Transoceanic
Sat 10:57:00 PM 50.0081 159.9498 233° Southwest 430 495 40,000  Level FlightAware Transoceanic
Sat 10:58:00 PM 49.9355 159.7992 233° Southwest 430 495 40,000  Level FlightAware Transoceanic
Sat 10:59:00 PM 49.8628 159.6490 233° Southwest 430 495 40,000  Level FlightAware Transoceanic
Sat 11:00:00 PM 49.7863 159.4964 234° Southwest 439 505 40,000  Level FlightAware Transoceanic
Sat 11:01:00 PM 49.7167 159.3500 233° Southwest 439 505 40,000  Level FlightAware Transoceanic
Sat 11:02:00 PM 49.6428 159.1993 233° Southwest 439 505 40,000  Level FlightAware Transoceanic
Sat 11:03:00 PM 49.5688 159.0490 233° Southwest 439 505 40,000  Level FlightAware Transoceanic
Sat 11:04:00 PM 49.4946 158.8992 233° Southwest 439 505 40,000  Level FlightAware Transoceanic
Sat 11:05:00 PM 49.4202 158.7499 232° Southwest 439 505 40,000  Level FlightAware Transoceanic
Sat 11:06:00 PM 49.3456 158.6010 232° Southwest 439 505 40,000  Level FlightAware Transoceanic
Sat 11:07:00 PM 49.2709 158.4526 232° Southwest 439 505 40,000  Level FlightAware Transoceanic
Sat 11:08:00 PM 49.1959 158.3046 232° Southwest 439 505 40,000  Level FlightAware Transoceanic
Sat 11:09:00 PM 49.1207 158.1571 232° Southwest 439 505 40,000  Level FlightAware Transoceanic
Sat 11:10:00 PM 49.0454 158.0100 232° Southwest 439 505 40,000  Level FlightAware Transoceanic
Sat 11:11:00 PM 48.9698 157.8633 232° Southwest 439 505 40,000  Level FlightAware Transoceanic
Sat 11:12:00 PM 48.8941 157.7171 232° Southwest 439 505 40,000  Level FlightAware Transoceanic
Sat 11:13:00 PM 48.8182 157.5714 232° Southwest 439 505 40,000  Level FlightAware Transoceanic
Sat 11:14:00 PM 48.7421 157.4261 231° Southwest 439 505 40,000  Level FlightAware Transoceanic
Sat 11:15:00 PM 48.6659 157.2812 231° Southwest 439 505 40,000  Level FlightAware Transoceanic
Sat 11:16:00 PM 48.5894 157.1367 231° Southwest 439 505 40,000  Level FlightAware Transoceanic
Sat 11:17:00 PM 48.5128 156.9927 231° Southwest 439 505 40,000  Level FlightAware Transoceanic
Sat 11:18:00 PM 48.4360 156.8492 231° Southwest 439 505 40,000  Level FlightAware Transoceanic
Sat 11:19:00 PM 48.3590 156.7060 231° Southwest 439 505 40,000  Level FlightAware Transoceanic
Sat 11:20:00 PM 48.2818 156.5633 231° Southwest 439 505 40,000  Level FlightAware Transoceanic
Sat 11:21:00 PM 48.2045 156.4211 231° Southwest 439 505 40,000  Level FlightAware Transoceanic
Sat 11:22:00 PM 48.1270 156.2792 231° Southwest 439 505 40,000  Level FlightAware Transoceanic
Sat 11:23:00 PM 48.0493 156.1378 231° Southwest 439 505 40,000  Level FlightAware Transoceanic
Sat 11:24:00 PM 47.9714 155.9968 230° Southwest 439 505 40,000  Level FlightAware Transoceanic
Sat 11:25:00 PM 47.8934 155.8563 230° Southwest 439 505 40,000  Level FlightAware Transoceanic
Sat 11:26:00 PM 47.8152 155.7162 230° Southwest 439 505 40,000  Level FlightAware Transoceanic
Sat 11:27:00 PM 47.7368 155.5764 230° Southwest 439 505 40,000  Level FlightAware Transoceanic
Sat 11:28:00 PM 47.6583 155.4371 230° Southwest 439 505 40,000  Level FlightAware Transoceanic
Sat 11:29:00 PM 47.5796 155.2983 230° Southwest 439 505 40,000  Level FlightAware Transoceanic
Sat 11:30:00 PM 47.5007 155.1598 230° Southwest 439 505 40,000  Level FlightAware Transoceanic
Sat 11:31:00 PM 47.4216 155.0218 230° Southwest 439 505 40,000  Level FlightAware Transoceanic
Sat 11:32:00 PM 47.3424 154.8841 230° Southwest 439 505 40,000  Level FlightAware Transoceanic
Sat 11:33:00 PM 47.2631 154.7469 229° Southwest 439 505 40,000  Level FlightAware Transoceanic
Sat 11:34:00 PM 47.1835 154.6101 229° Southwest 439 505 40,000  Level FlightAware Transoceanic
Sat 11:35:00 PM 47.1038 154.4737 229° Southwest 439 505 40,000  Level FlightAware Transoceanic
Sat 11:36:00 PM 47.0240 154.3377 229° Southwest 439 505 40,000  Level FlightAware Transoceanic
Sat 11:37:00 PM 46.9439 154.2022 229° Southwest 439 505 40,000  Level FlightAware Transoceanic
Sat 11:38:00 PM 46.8638 154.0670 229° Southwest 439 505 40,000  Level FlightAware Transoceanic
Sat 11:39:00 PM 46.7834 153.9322 229° Southwest 439 505 40,000  Level FlightAware Transoceanic
Sat 11:40:00 PM 46.7029 153.7979 229° Southwest 439 505 40,000  Level FlightAware Transoceanic
Sat 11:41:00 PM 46.6223 153.6639 229° Southwest 439 505 40,000  Level FlightAware Transoceanic
Sat 11:42:00 PM 46.5415 153.5303 229° Southwest 439 505 40,000  Level FlightAware Transoceanic
Sat 11:43:00 PM 46.4605 153.3971 228° Southwest 439 505 40,000  Level FlightAware Transoceanic
Sat 11:44:00 PM 46.3794 153.2644 228° Southwest 439 505 40,000  Level FlightAware Transoceanic
Sat 11:45:00 PM 46.2981 153.1320 228° Southwest 439 505 40,000  Level FlightAware Transoceanic
Sat 11:46:00 PM 46.2146 152.9967 228° Southwest  Level FlightAware Approximate
Sat 11:47:00 PM 46.2125 152.9934 228° Southwest  Level FlightAware Approximate
Sat 11:48:00 PM 46.1284 152.8592 228° Southwest  Level FlightAware Approximate
Sat 11:49:00 PM 46.0441 152.7254 228° Southwest  Level FlightAware Approximate
Sat 11:50:00 PM 45.9596 152.5920 228° Southwest  Level FlightAware Approximate
Sat 11:51:00 PM 45.8750 152.4590 228° Southwest  Level FlightAware Approximate
Sat 11:52:00 PM 45.7902 152.3264 228° Southwest  Level FlightAware Approximate
Sat 11:53:00 PM 45.7053 152.1942 227° Southwest  Level FlightAware Approximate
Sat 11:54:00 PM 45.6202 152.0624 227° Southwest  Level FlightAware Approximate
Sat 11:55:00 PM 45.5350 151.9310 227° Southwest  Level FlightAware Approximate
Sat 11:56:00 PM 45.4496 151.8001 227° Southwest  Level FlightAware Approximate
Sat 11:57:00 PM 45.3640 151.6695 227° Southwest  Level FlightAware Approximate
Sat 11:58:00 PM 45.2784 151.5393 227° Southwest  Level FlightAware Approximate
Sat 11:59:00 PM 45.1925 151.4095 227° Southwest  Level FlightAware Approximate
Sun 12:00:00 AM 45.1065 151.2801 227° Southwest  Level FlightAware Approximate
Sun 12:01:00 AM 45.0204 151.1510 227° Southwest  Level FlightAware Approximate
Sun 12:02:00 AM 44.9342 151.0224 227° Southwest  Level FlightAware Approximate
Sun 12:03:00 AM 44.8478 150.8942 226° Southwest  Level FlightAware Approximate
Sun 12:04:00 AM 44.7612 150.7663 226° Southwest  Level FlightAware Approximate
Sun 12:05:00 AM 44.6745 150.6388 226° Southwest  Level FlightAware Approximate
Sun 12:06:00 AM 44.5877 150.5117 226° Southwest  Level FlightAware Approximate
Sun 12:07:00 AM 44.5007 150.3850 226° Southwest  Level FlightAware Approximate
Sun 12:08:00 AM 44.4136 150.2587 226° Southwest  Level FlightAware Approximate
Sun 12:09:00 AM 44.3263 150.1327 226° Southwest  Level FlightAware Approximate
Sun 12:10:00 AM 44.2389 150.0071 226° Southwest  Level FlightAware Approximate
Sun 12:11:00 AM 44.1510 149.8814 226° Southwest  Level FlightAware Approximate
Sun 12:12:00 AM 44.0629 149.7560 226° Southwest  Level FlightAware Approximate
Sun 12:13:00 AM 43.9747 149.6309 226° Southwest  Level FlightAware Approximate
Sun 12:14:00 AM 43.8864 149.5063 226° Southwest  Level FlightAware Approximate
Sun 12:15:00 AM 43.7979 149.3820 225° Southwest  Level FlightAware Approximate
Sun 12:16:00 AM 43.7093 149.2581 225° Southwest  Level FlightAware Approximate
Sun 12:17:00 AM 43.6206 149.1345 225° Southwest  Level FlightAware Approximate
Sun 12:18:00 AM 43.5317 149.0114 225° Southwest  Level FlightAware Approximate
Sun 12:19:00 AM 43.4427 148.8885 225° Southwest  Level FlightAware Approximate
Sun 12:20:00 AM 43.3536 148.7661 225° Southwest  Level FlightAware Approximate
Sun 12:21:00 AM 43.2643 148.6440 225° Southwest  Level FlightAware Approximate
Sun 12:22:00 AM 43.1749 148.5222 225° Southwest  Level FlightAware Approximate
Sun 12:23:00 AM 43.0854 148.4008 225° Southwest  Level FlightAware Approximate
Sun 12:24:00 AM 42.9958 148.2798 225° Southwest  Level FlightAware Approximate
Sun 12:25:00 AM 42.9060 148.1591 225° Southwest  Level FlightAware Approximate
Sun 12:26:00 AM 42.8161 148.0388 224° Southwest  Level FlightAware Approximate
Sun 12:27:00 AM 42.7261 147.9188 224° Southwest  Level FlightAware Approximate
Sun 12:28:00 AM 42.6359 147.7992 224° Southwest  Level FlightAware Approximate
Sun 12:29:00 AM 42.5457 147.6799 224° Southwest  Level FlightAware Approximate
Sun 12:30:00 AM 42.4553 147.5610 224° Southwest  Level FlightAware Approximate
Sun 12:31:00 AM 42.3649 147.4421 225° Southwest  Level FlightAware Approximate
Sun 12:32:00 AM 42.2752 147.3226 225° Southwest  Level FlightAware Approximate
Sun 12:33:00 AM 42.1853 147.2034 225° Southwest  Level FlightAware Approximate
Sun 12:34:00 AM 42.0954 147.0846 224° Southwest  Level FlightAware Approximate
Sun 12:35:00 AM 42.0053 146.9661 224° Southwest  Level FlightAware Approximate
Sun 12:36:00 AM 41.9150 146.8479 223° Southwest  Level FlightAware Approximate
Sun 12:37:00 AM 41.8233 146.7321 223° Southwest  Level FlightAware Approximate
Sun 12:38:00 AM 41.7314 146.6166 223° Southwest  Level FlightAware Approximate
Sun 12:39:00 AM 41.6394 146.5014 223° Southwest  Level FlightAware Approximate
Sun 12:40:00 AM 41.5473 146.3865 223° Southwest  Level FlightAware Approximate
Sun 12:41:00 AM 41.4551 146.2720 223° Southwest  Level FlightAware Approximate
Sun 12:42:00 AM 41.3628 146.1578 223° Southwest  Level FlightAware Approximate
Sun 12:43:00 AM 41.2704 146.0439 223° Southwest  Level FlightAware Approximate
Sun 12:44:00 AM 41.1778 145.9303 223° Southwest  Level FlightAware Approximate
Sun 12:45:00 AM 41.0864 145.8153 224° Southwest  Level FlightAware Approximate
Sun 12:46:00 AM 40.9950 145.7004 224° Southwest  Level FlightAware Approximate
Sun 12:47:00 AM 40.9035 145.5858 223° Southwest  Level FlightAware Approximate
Sun 12:48:00 AM 40.8120 145.4715 223° Southwest  Level FlightAware Approximate
Sun 12:49:00 AM 40.7202 145.3575 223° Southwest  Level FlightAware Approximate
Sun 12:50:00 AM 40.6284 145.2438 223° Southwest  Level FlightAware Approximate
Sun 12:51:00 AM 40.5365 145.1304 223° Southwest  Level FlightAware Approximate
Sun 12:52:00 AM 40.4445 145.0174 223° Southwest  Level FlightAware Approximate
Sun 12:53:00 AM 40.3519 144.9053 223° Southwest  Level FlightAware Approximate
Sun 12:54:00 AM 40.2590 144.7938 223° Southwest  Level FlightAware Approximate
Sun 12:55:00 AM 40.1660 144.6826 222° Southwest  Level FlightAware Approximate
Sun 12:56:00 AM 40.0729 144.5717 222° Southwest  Level FlightAware Approximate
Sun 12:57:00 AM 39.9796 144.4611 222° Southwest  Level FlightAware Approximate
Sun 12:57:43 AM 39.6970 144.1390 222° Southwest 445 512 40,000  Level FlightAware ADS-B
Sun 12:58:00 AM 39.8863 144.3508 222° Southwest  Level FlightAware Approximate
Sun 12:58:18 AM 39.6480 144.0810 222° Southwest 445 512 40,000  Level FlightAware ADS-B
Sun 12:58:54 AM 39.5920 144.0160 222° Southwest 440 506 40,000  Level FlightAware ADS-B
Sun 12:59:29 AM 39.5380 143.9530 222° Southwest 440 506 40,000  Level FlightAware ADS-B
Sun 01:00:04 AM 39.4830 143.8890 222° Southwest 442 509 40,000  Level FlightAware ADS-B
Sun 01:00:39 AM 39.4290 143.8260 222° Southwest 449 517 40,000  Level FlightAware ADS-B
Sun 01:01:19 AM 39.3670 143.7550 222° Southwest 449 517 40,000  Level FlightAware ADS-B
Sun 01:01:54 AM 39.3140 143.6940 222° Southwest 449 517 40,000  Level FlightAware ADS-B
Sun 01:02:29 AM 39.2580 143.6300 222° Southwest 449 517 40,000  Level FlightAware ADS-B
Sun 01:03:09 AM 39.1960 143.5580 222° Southwest 448 516 40,000  Level FlightAware ADS-B
Sun 01:03:39 AM 39.1500 143.5050 222° Southwest 441 507 40,000  Level FlightAware ADS-B
Sun 01:04:19 AM 39.0880 143.4350 221° Southwest 449 517 40,000  Level FlightAware ADS-B
Sun 01:04:49 AM 39.0420 143.3820 222° Southwest 449 517 40,000  Level FlightAware ADS-B
Sun 01:05:24 AM 38.9870 143.3190 222° Southwest 450 518 40,000  Level FlightAware ADS-B
Sun 01:05:59 AM 38.9360 143.2630 221° Southwest 450 518 40,000  Level FlightAware ADS-B
Sun 01:06:29 AM 38.8720 143.2250 205° Southwest 486 559 40,000  Level FlightAware ADS-B
Sun 01:07:04 AM 38.7910 143.2110 188° South 498 573 40,000  Level FlightAware ADS-B
Sun 01:07:39 AM 38.7110 143.2010 186° South 498 573 40,000  Level FlightAware ADS-B
Sun 01:08:14 AM 38.6310 143.1890 187° South 500 575 40,000  Level FlightAware ADS-B
Sun 01:08:48 AM 38.5490 143.1780 186° South 501 577 40,000  Level FlightAware ADS-B
Sun 01:09:23 AM 38.4690 143.1670 186° South 501 577 40,000  Level FlightAware ADS-B
Sun 01:09:58 AM 38.3890 143.1560 186° South 498 573 40,000  Level FlightAware ADS-B
Sun 01:10:33 AM 38.3100 143.1360 191° South 487 560 40,000  Level FlightAware ADS-B
Sun 01:11:09 AM 38.2370 143.1030 200° South 480 552 40,000  Level FlightAware ADS-B
Sun 01:11:44 AM 38.1670 143.0700 200° South 482 555 40,000  Level FlightAware ADS-B
Sun 01:12:18 AM 38.0950 143.0360 200° South 482 555 40,000  Level FlightAware ADS-B
Sun 01:12:53 AM 38.0180 143.0000 200° South 481 554 40,000  Level FlightAware ADS-B
Sun 01:13:29 AM 37.9510 142.9690 200° South 480 552 40,000  Level FlightAware ADS-B
Sun 01:14:03 AM 37.8750 142.9340 200° South 479 551 40,000  Level FlightAware ADS-B
Sun 01:14:38 AM 37.8020 142.8990 201° Southwest 480 552 40,000  Level FlightAware ADS-B
Sun 01:15:13 AM 37.7280 142.8650 200° South 475 547 40,000  Level FlightAware ADS-B
Sun 01:15:48 AM 37.6550 142.8310 200° South 476 548 40,000  Level FlightAware ADS-B
Sun 01:16:23 AM 37.5830 142.7980 200° South 477 549 40,000  Level FlightAware ADS-B
Sun 01:16:58 AM 37.5110 142.7650 200° South 475 547 40,000  Level FlightAware ADS-B
Sun 01:17:38 AM 37.4300 142.7270 200° South 475 547 40,000  Level FlightAware ADS-B
Sun 01:18:13 AM 37.3540 142.6940 199° South 476 548 40,000  Level FlightAware ADS-B
Sun 01:18:53 AM 37.2740 142.6600 199° South 473 544 40,000  Level FlightAware ADS-B
Sun 01:19:29 AM 37.2000 142.6280 199° South 471 542 40,000  Level FlightAware ADS-B
Sun 01:19:59 AM 37.1390 142.6010 199° South 462 532 40,000  Level FlightAware ADS-B
Sun 01:20:34 AM 37.0690 142.5710 199° South 464 534 40,000  Level FlightAware ADS-B
Sun 01:21:14 AM 36.9850 142.5320 200° South 469 540 40,000  Level FlightAware ADS-B
Sun 01:21:44 AM 36.9260 142.5000 203° Southwest 458 527 40,000  Level FlightAware ADS-B
Sun 01:22:19 AM 36.8560 142.4600 205° Southwest 459 528 40,000  Level FlightAware ADS-B
Sun 01:22:54 AM 36.7890 142.4220 204° Southwest 460 529 40,000  Level FlightAware ADS-B
Sun 01:23:34 AM 36.7090 142.3760 205° Southwest 458 527 40,000 -254 Level FlightAware ADS-B
Sun 01:24:05 AM 36.6500 142.3430 204° Southwest 462 532 39,700 -1,477 Descending FlightAware ADS-B
Sun 01:24:39 AM 36.5820 142.3060 204° Southwest 457 526 38,400 -2,435 Descending FlightAware ADS-B
Sun 01:25:14 AM 36.5130 142.2690 203° Southwest 459 528 36,900 -2,720 Descending FlightAware ADS-B
Sun 01:25:54 AM 36.4320 142.2260 203° Southwest 474 545 35,000 -2,914 Descending FlightAware ADS-B
Sun 01:26:24 AM 36.3730 142.1940 204° Southwest 471 542 33,500 -3,046 Descending FlightAware ADS-B
Sun 01:26:59 AM 36.3080 142.1590 203° Southwest 475 547 31,700 -3,360 Descending FlightAware ADS-B
Sun 01:27:39 AM 36.2190 142.1110 204° Southwest 477 549 29,300 -3,086 Descending FlightAware ADS-B
Sun 01:28:09 AM 36.1560 142.0780 203° Southwest 477 549 28,100 -2,492 Descending FlightAware ADS-B
Sun 01:28:44 AM 36.0850 142.0400 203° Southwest 474 545 26,600 -2,400 Descending FlightAware ADS-B
Sun 01:29:19 AM 36.0190 142.0040 204° Southwest 458 527 25,300 -2,400 Descending FlightAware ADS-B
Sun 01:29:54 AM 35.9470 141.9660 203° Southwest 457 526 23,800 -2,486 Descending FlightAware ADS-B
Sun 01:30:29 AM 35.8840 141.9330 203° Southwest 442 509 22,400 -2,560 Descending FlightAware ADS-B
Sun 01:31:09 AM 35.8030 141.8900 203° Southwest 432 497 20,600 -2,500 Descending FlightAware ADS-B
Sun 01:31:29 AM 35.7710 141.8640 213° Southwest 422 486 19,900 -2,000 Descending FlightAware ADS-B
Sun 01:31:54 AM 35.7410 141.8170 232° Southwest 411 473 19,100 -2,040 Descending FlightAware ADS-B
Sun 01:32:19 AM 35.7300 141.7620 256° West 398 458 18,200 -2,400 Descending FlightAware ADS-B
Sun 01:32:54 AM 35.7390 141.6830 278° West 391 450 16,700 -1,833 Descending FlightAware ADS-B
Sun 01:33:31 AM 35.7490 141.6080 279° West 391 450 16,000 -769 Descending FlightAware ADS-B
Sun 01:34:12 AM 35.7600 141.5320 280° West 383 441 15,700 -711 Descending FlightAware ADS-B
Sun 01:34:47 AM 35.7700 141.4620 280° West 381 438 15,100 -1,304 Descending FlightAware ADS-B
Sun 01:35:21 AM 35.7810 141.3830 280° West 377 434 14,200 -1,973 Descending FlightAware ADS-B
Sun 01:36:00 AM 35.7940 141.2850 279° West 375 432 12,700 -2,108 Descending FlightAware ADS-B
Sun 01:36:35 AM 35.8040 141.2110 279° West 370 426 11,600 -1,200 Descending FlightAware ADS-B
Sun 01:37:10 AM 35.8130 141.1400 279° West 338 389 11,300 -514 Descending FlightAware ADS-B
Sun 01:37:45 AM 35.8210 141.0760 279° West 309 356 11,000 -514 Descending FlightAware ADS-B
Sun 01:38:20 AM 35.8290 141.0180 280° West 285 328 10,700 -514 Descending FlightAware ADS-B
Sun 01:38:55 AM 35.8360 140.9640 279° West 266 306 10,400 -764 Descending FlightAware ADS-B
Sun 01:39:15 AM 35.8400 140.9340 279° West 269 310 10,000 -1,350 Descending FlightAware ADS-B
Sun 01:39:35 AM 35.8450 140.9040 282° West 275 316 9,500 -1,200 Descending FlightAware ADS-B
Sun 01:39:45 AM 35.8500 140.8890 292° West 272 313 9,400 -581 Descending FlightAware ADS-B
Sun 01:40:06 AM 35.8640 140.8640 305° West 259 298 9,200 -600 Descending FlightAware ADS-B
Sun 01:40:25 AM 35.8780 140.8400 306° West 252 290 9,000 -857 Descending FlightAware ADS-B
Sun 01:40:41 AM 35.8880 140.8230 306° West 249 287 8,700 -1,029 Descending FlightAware ADS-B
Sun 01:41:00 AM 35.9030 140.8000 309° West 249 287 8,400 -1,077 Descending FlightAware ADS-B
Sun 01:41:20 AM 35.9160 140.7780 306° West 251 289 8,000 -1,263 Descending FlightAware ADS-B
Sun 01:41:38 AM 35.9280 140.7520 300° West 250 288 7,600 -1,077 Descending FlightAware ADS-B
Sun 01:41:59 AM 35.9350 140.7240 287° West 248 285 7,300 -474 Descending FlightAware ADS-B
Sun 01:42:16 AM 35.9390 140.7010 282° West 249 287 7,300  Level FlightAware ADS-B
Sun 01:42:24 AM 35.9410 140.6880 281° West 245 282 7,300  Level FlightAware ADS-B
Sun 01:42:48 AM 35.9430 140.6560 274° West 245 282 7,300  Level FlightAware ADS-B
Sun 01:43:08 AM 35.9450 140.6270 275° West 246 283 7,300  Level FlightAware ADS-B
Sun 01:43:24 AM 35.9470 140.6050 276° West 247 284 7,300  Level FlightAware ADS-B
Sun 01:43:44 AM 35.9480 140.5770 273° West 236 272 7,300 -450 Level FlightAware ADS-B
Sun 01:44:04 AM 35.9500 140.5510 275° West 228 262 7,000 -833 Descending FlightAware ADS-B
Sun 01:44:20 AM 35.9510 140.5310 274° West 224 258 6,800 -833 Descending FlightAware ADS-B
Sun 01:44:40 AM 35.9530 140.5060 276° West 223 257 6,500 -1,050 Descending FlightAware ADS-B
Sun 01:45:00 AM 35.9540 140.4800 273° West 224 258 6,100 -1,000 Descending FlightAware ADS-B
Sun 01:45:16 AM 35.9550 140.4590 273° West 224 258 5,900 -1,059 Descending FlightAware ADS-B
Sun 01:45:34 AM 35.9570 140.4360 276° West 224 258 5,500 -1,050 Descending FlightAware ADS-B
Sun 01:45:56 AM 35.9580 140.4080 273° West 224 258 5,200 -857 Descending FlightAware ADS-B
Sun 01:46:16 AM 35.9600 140.3820 275° West 222 255 4,900 -536 Descending FlightAware ADS-B
Sun 01:46:52 AM 35.9560 140.3480 262° West 220 253 4,700 -439 Descending FlightAware ADS-B
Sun 01:46:57 AM 35.9530 140.3390 248° West 216 249 4,600 -2,100 Descending FlightAware ADS-B
Sun 01:47:12 AM 35.9450 140.3200 243° Southwest 215 247 4,000 -2,182 Descending FlightAware ADS-B
Sun 01:47:30 AM 35.9380 140.3020 244° Southwest 215 247 3,400 -1,543 Descending FlightAware ADS-B
Sun 01:47:47 AM 35.9290 140.2880 232° Southwest 216 249 3,100 -474 Descending FlightAware ADS-B
Sun 01:48:08 AM 35.9080 140.2720 212° Southwest 188 216 3,100 -136 Level FlightAware ADS-B
Sun 01:48:31 AM 35.8920 140.2830 151° Southeast 171 197 3,000 -545 Descending FlightAware ADS-B
Sun 01:48:52 AM 35.8780 140.2940 148° Southeast 168 193 2,700 -909 Descending FlightAware ADS-B
Sun 01:49:04 AM 35.8690 140.3000 152° Southeast 166 191 2,500 -857 Descending FlightAware ADS-B
Sun 01:49:27 AM 35.8540 140.3100 152° Southeast 169 194 2,200 -818 Descending FlightAware ADS-B
Sun 01:49:48 AM 35.8400 140.3210 148° Southeast 169 194 1,900 -909 Descending FlightAware ADS-B
Sun 01:50:00 AM 35.8320 140.3270 149° Southeast 165 190 1,700 -833 Descending FlightAware ADS-B
Sun 01:50:24 AM 35.8170 140.3380 149° Southeast 150 173 1,400 -686 Descending FlightAware ADS-B
Sun 01:50:35 AM 35.8110 140.3420 152° Southeast 148 170 1,300 -750 Descending FlightAware ADS-B
Sun 01:50:56 AM 35.7980 140.3510 151° Southeast 147 169 1,000 -800 Descending FlightAware ADS-B
Sun 01:51:20 AM 35.7840 140.3610 150° Southeast 145 167 700 -316 Descending FlightAware ADS-B
Sun 01:51:53 AM 35.7680 140.3730 149° Southeast 146 168 700  Level FlightAware ADS-B

Login

Don't have an account? Register now (free) for customized features, flight alerts, and more!